Tampa — WDB4806 — position and weather

sailwx.info

Track history (hours):
 
Tides and Currents Weather Stations Pressure Air Temp Water Temp Dewpoint Dewpoint Depression Visibility Wind Speed Wind Dir Waves Ship Positions

Tampa

Owner: Tampa Pilots LLC, Tampa, FL. More information available from US FCC via Universal Licensing System and Coast Guard Vessel Documentation Center.

Last reported at 2014-Oct-22 23:33 UTC. Time now 2014-Oct-23 00:00 UTC.
Position N 27°37' W 082°47'.

Length 19 m; draft 1.5 m.

Type: Pilot. MMSI: 366902570.

Date/timePositionNaut miles runAvg speedWind from/ knotsBaromVisibWave heightAir tempDewpointWater temp
2014-Oct-22 23:33N 27°37' W 082°47'3 2.9
2014-Oct-22 22:33N 27°37' W 082°44'1 0.9
2014-Oct-22 21:33N 27°36' W 082°44'1 1.5
2014-Oct-22 20:32N 27°35' W 082°46'5 4.8
2014-Oct-22 19:34N 27°36' W 082°51'5 4.6
2014-Oct-22 18:33N 27°35' W 082°46'1 0.6
2014-Oct-22 17:34N 27°36' W 082°45'1 0.6
2014-Oct-22 16:31N 27°35' W 082°46'0 0.0
2014-Oct-22 15:28N 27°35' W 082°46'1 1.1
2014-Oct-22 14:31N 27°36' W 082°45'1 1.0
2014-Oct-22 13:31N 27°35' W 082°46'0 0.0
2014-Oct-22 12:31N 27°35' W 082°46'0 0.0
2014-Oct-22 11:31N 27°35' W 082°46'2 2.6
2014-Oct-22 10:33N 27°37' W 082°44'3 3.0
2014-Oct-22 09:33N 27°36' W 082°47'1 0.9
2014-Oct-22 08:34N 27°36' W 082°46'1 1.3
2014-Oct-22 07:33N 27°35' W 082°46'0 0.0
2014-Oct-22 06:33N 27°35' W 082°46'0 0.0
2014-Oct-22 05:33N 27°35' W 082°46'0 0.0
2014-Oct-22 04:30N 27°35' W 082°46'0 0.0
2014-Oct-22 03:33N 27°35' W 082°46'0 0.0
2014-Oct-22 02:33N 27°35' W 082°46'2 1.4
2014-Oct-22 01:28N 27°37' W 082°46'2 1.1
2014-Oct-22 00:07N 27°35' W 082°46'0 0.0
2014-Oct-21 22:31N 27°35' W 082°46'0 0.1
2014-Oct-21 21:33N 27°35' W 082°46'5 4.8
2014-Oct-21 20:33N 27°36' W 082°51'6 6.3
2014-Oct-21 19:33N 27°37' W 082°44'0 0.3
2014-Oct-21 18:33N 27°37' W 082°44'2 2.4
2014-Oct-21 17:32N 27°35' W 082°46'0 0.0
2014-Oct-21 16:32N 27°35' W 082°46'0 0.0
2014-Oct-21 15:32N 27°35' W 082°46'0 0.0
2014-Oct-21 14:32N 27°35' W 082°46'2 2.5
2014-Oct-21 13:32N 27°37' W 082°44'2 2.4
2014-Oct-21 12:29N 27°35' W 082°46'0 0.3
2014-Oct-21 11:09N 27°35' W 082°45'2 3.2
2014-Oct-21 10:31N 27°37' W 082°44'2 2.4
2014-Oct-21 09:28N 27°35' W 082°46'6 6.6
2014-Oct-21 08:33N 27°36' W 082°52'6 5.9
2014-Oct-21 07:32N 27°35' W 082°46'0 0.0
2014-Oct-21 06:08N 27°35' W 082°46'0 0.0
2014-Oct-21 05:26N 27°35' W 082°46'0 0.0
2014-Oct-21 04:17N 27°35' W 082°46'1 1.6
2014-Oct-21 03:25N 27°37' W 082°46'0 0.0
2014-Oct-21 02:33N 27°37' W 082°46'1 1.1
2014-Oct-21 01:20N 27°35' W 082°46'4 5.0
2014-Oct-21 00:33N 27°36' W 082°50'1 1.0
2014-Oct-20 23:30N 27°37' W 082°49'0 0.5
2014-Oct-20 22:33N 27°36' W 082°49'3 3.2
2014-Oct-20 21:31N 27°35' W 082°46'5 5.5
2014-Oct-20 20:34N 27°36' W 082°51'7 6.6
2014-Oct-20 19:33N 27°37' W 082°44'2 1.6
2014-Oct-20 18:34N 27°35' W 082°45'1 1.1
2014-Oct-20 17:32N 27°36' W 082°45'1 1.3
2014-Oct-20 16:31N 27°35' W 082°46'0 0.0
2014-Oct-20 15:19N 27°35' W 082°46'0 0.0
2014-Oct-20 14:31N 27°35' W 082°46'0 0.0
2014-Oct-20 13:31N 27°35' W 082°46'0 0.0
2014-Oct-20 12:31N 27°35' W 082°46'0 0.0
2014-Oct-20 11:31N 27°35' W 082°46'4 3.8
2014-Oct-20 10:33N 27°36' W 082°49'3 3.3
2014-Oct-20 09:33N 27°36' W 082°46'1 1.1
2014-Oct-20 08:33N 27°35' W 082°46'4 3.7
2014-Oct-20 07:33N 27°36' W 082°50'4 3.6
2014-Oct-20 06:32N 27°35' W 082°46'9 9.3
2014-Oct-20 05:33N 27°36' W 082°56'9 9.3
2014-Oct-20 04:33N 27°35' W 082°46'0 0.0
2014-Oct-20 03:33N 27°35' W 082°46'0 0.0
2014-Oct-20 02:33N 27°35' W 082°46'0 0.0
2014-Oct-20 01:33N 27°35' W 082°46'5 4.6
2014-Oct-20 00:34N 27°36' W 082°51'5 4.6
2014-Oct-19 23:33N 27°35' W 082°46'2 2.5
2014-Oct-19 22:33N 27°37' W 082°44'2 2.4
2014-Oct-19 21:32N 27°35' W 082°46'0 0.0
2014-Oct-19 20:32N 27°35' W 082°46'1 1.1
2014-Oct-19 19:34N 27°36' W 082°45'1 1.1
2014-Oct-19 18:33N 27°35' W 082°46'2 1.9
2014-Oct-19 17:32N 27°37' W 082°47'2 1.7
2014-Oct-19 16:34N 27°37' W 082°45'8 8.4
2014-Oct-19 15:33N 27°36' W 082°55'10 9.6
2014-Oct-19 14:32N 27°37' W 082°44'2 2.5
2014-Oct-19 13:32N 27°35' W 082°46'6 6.5
2014-Oct-19 12:34N 27°36' W 082°53'6 6.3
2014-Oct-19 11:33N 27°35' W 082°46'5 4.7
2014-Oct-19 10:29N 27°36' W 082°51'5 5.4
2014-Oct-19 09:32N 27°35' W 082°46'0 0.0
2014-Oct-19 08:32N 27°35' W 082°46'0 0.0
2014-Oct-19 07:32N 27°35' W 082°46'0 0.0
2014-Oct-19 06:33N 27°35' W 082°46'0 0.0
2014-Oct-19 05:33N 27°35' W 082°46'0 0.0
2014-Oct-19 04:33N 27°35' W 082°46'0 0.0
2014-Oct-19 03:33N 27°35' W 082°46'5 5.3
2014-Oct-19 02:33N 27°36' W 082°51'5 5.2
2014-Oct-19 01:33N 27°35' W 082°46'0 0.0
2014-Oct-19 00:31N 27°35' W 082°46'0 0.0
2014-Oct-18 23:31N 27°35' W 082°46'0 0.0
2014-Oct-18 22:22N 27°35' W 082°46'0 0.0
2014-Oct-18 21:31N 27°35' W 082°46'0 0.0
2014-Oct-18 20:33N 27°35' W 082°46'8 7.8
2014-Oct-18 19:32N 27°39' W 082°38'6 6.5
2014-Oct-18 18:33N 27°46' W 082°38'0 0.0
2014-Oct-18 17:33N 27°46' W 082°38'0 0.0
2014-Oct-18 16:33N 27°46' W 082°38'0 0.0
2014-Oct-18 15:33N 27°46' W 082°38'0 0.0
2014-Oct-18 14:22N 27°46' W 082°38'0 0.0
2014-Oct-18 13:24N 27°46' W 082°38'0 0.0
2014-Oct-18 12:33N 27°46' W 082°38'1010.2
2014-Oct-18 11:33N 27°37' W 082°44'0 0.0
2014-Oct-18 10:33N 27°37' W 082°44'2 2.5
2014-Oct-18 09:33N 27°35' W 082°46'7 7.5
2014-Oct-18 08:33N 27°36' W 082°54'7 7.2
2014-Oct-18 07:31N 27°35' W 082°46'0 0.0
2014-Oct-18 06:33N 27°35' W 082°46'1 1.4
2014-Oct-18 05:33N 27°36' W 082°46'1 1.4
2014-Oct-18 04:33N 27°35' W 082°46'0 0.0
2014-Oct-18 03:33N 27°35' W 082°46'0 0.0
2014-Oct-18 02:30N 27°35' W 082°46'0 0.0
2014-Oct-18 01:33N 27°35' W 082°46'0 0.0
2014-Oct-18 00:33N 27°35' W 082°46'7 6.7
2014-Oct-17 23:33N 27°36' W 082°53'8 8.5
2014-Oct-17 22:33N 27°37' W 082°44'2 2.4
2014-Oct-17 21:33N 27°35' W 082°46'0 0.0
2014-Oct-17 20:33N 27°35' W 082°46'6 6.2
2014-Oct-17 19:34N 27°36' W 082°52'7 6.5
2014-Oct-17 18:33N 27°36' W 082°45'1 0.6
2014-Oct-17 17:34N 27°35' W 082°46'0 0.0
2014-Oct-17 16:31N 27°35' W 082°46'0 0.0
2014-Oct-17 14:31N 27°35' W 082°46'0 0.0
2014-Oct-17 13:31N 27°35' W 082°46'0 0.0
2014-Oct-17 12:31N 27°35' W 082°46'0 0.0
2014-Oct-17 11:28N 27°35' W 082°46'2 2.8
2014-Oct-17 10:33N 27°37' W 082°44'2 2.4
2014-Oct-17 09:31N 27°35' W 082°46'0 0.0
2014-Oct-17 08:31N 27°35' W 082°46'0 0.0
2014-Oct-17 07:33N 27°35' W 082°46'1 0.6
2014-Oct-17 06:33N 27°36' W 082°45'1 0.6
2014-Oct-17 05:33N 27°35' W 082°46'0 0.0
2014-Oct-17 04:33N 27°35' W 082°46'0 0.0
2014-Oct-17 03:33N 27°35' W 082°46'1 1.3
2014-Oct-17 02:33N 27°36' W 082°46'3 3.0
2014-Oct-17 01:33N 27°36' W 082°49'3 3.2
2014-Oct-17 00:32N 27°35' W 082°46'0 0.0
2014-Oct-16 23:29N 27°35' W 082°46'2 2.7
2014-Oct-16 22:33N 27°37' W 082°44'2 2.5
2014-Oct-16 21:34N 27°35' W 082°46'9 8.5
2014-Oct-16 20:33N 27°37' W 082°55'1010.2
2014-Oct-16 19:34N 27°37' W 082°44'2 2.3
2014-Oct-16 18:31N 27°35' W 082°46'0 0.0
2014-Oct-16 17:31N 27°35' W 082°46'0 0.0
2014-Oct-16 16:31N 27°35' W 082°46'0 0.0
2014-Oct-16 15:31N 27°35' W 082°46'0 0.0
2014-Oct-16 14:31N 27°35' W 082°46'0 0.0
2014-Oct-16 13:28N 27°35' W 082°46'0 0.0
2014-Oct-16 12:31N 27°35' W 082°46'0 0.0
2014-Oct-16 11:31N 27°35' W 082°46'2 2.6
2014-Oct-16 10:33N 27°37' W 082°44'2 2.5
2014-Oct-16 09:33N 27°35' W 082°46'0 0.0
2014-Oct-16 08:33N 27°35' W 082°46'5 4.7
2014-Oct-16 07:33N 27°36' W 082°51'5 4.6
2014-Oct-16 06:33N 27°35' W 082°46'8 7.5
2014-Oct-16 05:33N 27°36' W 082°54'9 9.3
2014-Oct-16 04:33N 27°37' W 082°44'2 2.4
2014-Oct-16 03:31N 27°35' W 082°46'0 0.0
2014-Oct-16 02:31N 27°35' W 082°46'0 0.0
2014-Oct-16 01:25N 27°35' W 082°46'0 0.0
2014-Oct-16 00:16N 27°35' W 082°46'0 0.0
2014-Oct-15 23:31N 27°35' W 082°46'2 2.6
2014-Oct-15 22:33N 27°37' W 082°44'2 2.5
2014-Oct-15 21:33N 27°35' W 082°46'2 1.9
2014-Oct-15 20:34N 27°37' W 082°47'1 1.4
2014-Oct-15 19:33N 27°36' W 082°45'7 6.6
2014-Oct-15 18:33N 27°36' W 082°53'8 8.3
2014-Oct-15 17:34N 27°37' W 082°44'5 5.1
2014-Oct-15 16:33N 27°36' W 082°49'0 0.1
2014-Oct-15 15:34N 27°36' W 082°49'4 3.5
2014-Oct-15 14:33N 27°35' W 082°46'0 0.0
2014-Oct-15 13:32N 27°35' W 082°46'0 0.0
2014-Oct-15 12:32N 27°35' W 082°46'0 0.0
2014-Oct-15 11:32N 27°35' W 082°46'0 0.0
2014-Oct-15 10:32N 27°35' W 082°46'0 0.0
2014-Oct-15 09:32N 27°35' W 082°46'0 0.0
2014-Oct-15 08:32N 27°35' W 082°46'0 0.0
2014-Oct-15 07:32N 27°35' W 082°46'0 0.0
2014-Oct-15 06:32N 27°35' W 082°46'0 0.0
2014-Oct-15 05:32N 27°35' W 082°46'0 0.0
2014-Oct-15 04:32N 27°35' W 082°46'0 0.0
2014-Oct-15 03:32N 27°35' W 082°46'0 0.0
2014-Oct-15 02:32N 27°35' W 082°46'10 9.4
2014-Oct-15 01:27N 27°36' W 082°57'6 7.3
2014-Oct-15 00:33N 27°36' W 082°50'3 2.6
2014-Oct-14 23:30N 27°37' W 082°47'3 3.1
2014-Oct-14 22:33N 27°37' W 082°44'4 3.7
2014-Oct-14 21:33N 27°37' W 082°48'4 4.0
2014-Oct-14 20:33N 27°36' W 082°52'8 7.8
2014-Oct-14 19:33N 27°37' W 082°43'3 2.5
2014-Oct-14 18:33N 27°35' W 082°46'0 0.0
2014-Oct-14 17:33N 27°35' W 082°46'0 0.0
2014-Oct-14 16:33N 27°35' W 082°46'0 0.0
2014-Oct-14 15:33N 27°35' W 082°46'0 0.0
2014-Oct-14 13:27N 27°35' W 082°46'0 0.0
2014-Oct-14 12:33N 27°35' W 082°46'0 0.0
2014-Oct-14 11:33N 27°35' W 082°46'0 0.0
2014-Oct-14 10:33N 27°35' W 082°46'0 0.0
2014-Oct-14 09:33N 27°35' W 082°46'0 0.0
2014-Oct-14 08:33N 27°35' W 082°46'0 0.0
2014-Oct-14 07:33N 27°35' W 082°46'0 0.0
2014-Oct-14 06:30N 27°35' W 082°46'0 0.0
2014-Oct-14 05:33N 27°35' W 082°46'0 0.0
2014-Oct-14 04:33N 27°35' W 082°46'0 0.0
2014-Oct-14 03:33N 27°35' W 082°46'0 0.0
2014-Oct-14 02:33N 27°35' W 082°46'0 0.0
2014-Oct-14 01:33N 27°35' W 082°46'0 0.0
2014-Oct-14 00:33N 27°35' W 082°46'0 0.0
2014-Oct-13 23:33N 27°35' W 082°46'0 0.0
2014-Oct-13 22:33N 27°35' W 082°46'0 0.0
2014-Oct-13 21:33N 27°35' W 082°46'0 0.0
2014-Oct-13 20:33N 27°35' W 082°46'0 0.0
2014-Oct-13 19:33N 27°35' W 082°46'0 0.0
2014-Oct-13 18:33N 27°35' W 082°46'0 0.0
2014-Oct-13 17:33N 27°35' W 082°46'0 0.0
2014-Oct-13 16:33N 27°35' W 082°46'0 0.0
2014-Oct-13 15:33N 27°35' W 082°46'0 0.0
2014-Oct-13 14:09N 27°35' W 082°46'0 0.0
2014-Oct-13 13:33N 27°35' W 082°46'0 0.0
2014-Oct-13 12:33N 27°35' W 082°46'0 0.0
2014-Oct-13 11:33N 27°35' W 082°46'0 0.0
2014-Oct-13 10:33N 27°35' W 082°46'0 0.0
2014-Oct-13 09:33N 27°35' W 082°46'0 0.0
2014-Oct-13 08:33N 27°35' W 082°46'0 0.0
2014-Oct-13 07:33N 27°35' W 082°46'0 0.0
2014-Oct-13 06:33N 27°35' W 082°46'0 0.0
2014-Oct-13 05:33N 27°35' W 082°46'0 0.0
2014-Oct-13 04:33N 27°35' W 082°46'0 0.0
2014-Oct-13 03:33N 27°35' W 082°46'0 0.0
2014-Oct-13 02:33N 27°35' W 082°46'0 0.0
2014-Oct-13 01:33N 27°35' W 082°46'0 0.0
2014-Oct-13 00:33N 27°35' W 082°46'  
Track history (hours):
 
Tides and Currents Weather Stations Pressure Air Temp Water Temp Dewpoint Dewpoint Depression Visibility Wind Speed Wind Dir Waves Ship Positions

Tampa

Owner: Tampa Pilots LLC, Tampa, FL. More information available from US FCC via Universal Licensing System and Coast Guard Vessel Documentation Center.

Last reported at 2014-Oct-22 23:33 UTC. Time now 2014-Oct-23 00:00 UTC.
Position N 27°37' W 082°47'.

Length 19 m; draft 1.5 m.

Type: Pilot. MMSI: 366902570.

Date/timePositionNaut miles runAvg speedWind from/ knotsBaromVisibWave heightAir tempDewpointWater temp
2014-Oct-22 23:33N 27°37' W 082°47'3 2.9
2014-Oct-22 22:33N 27°37' W 082°44'1 0.9
2014-Oct-22 21:33N 27°36' W 082°44'1 1.5
2014-Oct-22 20:32N 27°35' W 082°46'5 4.8
2014-Oct-22 19:34N 27°36' W 082°51'5 4.6
2014-Oct-22 18:33N 27°35' W 082°46'1 0.6
2014-Oct-22 17:34N 27°36' W 082°45'1 0.6
2014-Oct-22 16:31N 27°35' W 082°46'0 0.0
2014-Oct-22 15:28N 27°35' W 082°46'1 1.1
2014-Oct-22 14:31N 27°36' W 082°45'1 1.0
2014-Oct-22 13:31N 27°35' W 082°46'0 0.0
2014-Oct-22 12:31N 27°35' W 082°46'0 0.0
2014-Oct-22 11:31N 27°35' W 082°46'2 2.6
2014-Oct-22 10:33N 27°37' W 082°44'3 3.0
2014-Oct-22 09:33N 27°36' W 082°47'1 0.9
2014-Oct-22 08:34N 27°36' W 082°46'1 1.3
2014-Oct-22 07:33N 27°35' W 082°46'0 0.0
2014-Oct-22 06:33N 27°35' W 082°46'0 0.0
2014-Oct-22 05:33N 27°35' W 082°46'0 0.0
2014-Oct-22 04:30N 27°35' W 082°46'0 0.0
2014-Oct-22 03:33N 27°35' W 082°46'0 0.0
2014-Oct-22 02:33N 27°35' W 082°46'2 1.4
2014-Oct-22 01:28N 27°37' W 082°46'2 1.1
2014-Oct-22 00:07N 27°35' W 082°46'0 0.0
2014-Oct-21 22:31N 27°35' W 082°46'0 0.1
2014-Oct-21 21:33N 27°35' W 082°46'5 4.8
2014-Oct-21 20:33N 27°36' W 082°51'6 6.3
2014-Oct-21 19:33N 27°37' W 082°44'0 0.3
2014-Oct-21 18:33N 27°37' W 082°44'2 2.4
2014-Oct-21 17:32N 27°35' W 082°46'0 0.0
2014-Oct-21 16:32N 27°35' W 082°46'0 0.0
2014-Oct-21 15:32N 27°35' W 082°46'0 0.0
2014-Oct-21 14:32N 27°35' W 082°46'2 2.5
2014-Oct-21 13:32N 27°37' W 082°44'2 2.4
2014-Oct-21 12:29N 27°35' W 082°46'0 0.3
2014-Oct-21 11:09N 27°35' W 082°45'2 3.2
2014-Oct-21 10:31N 27°37' W 082°44'2 2.4
2014-Oct-21 09:28N 27°35' W 082°46'6 6.6
2014-Oct-21 08:33N 27°36' W 082°52'6 5.9
2014-Oct-21 07:32N 27°35' W 082°46'0 0.0
2014-Oct-21 06:08N 27°35' W 082°46'0 0.0
2014-Oct-21 05:26N 27°35' W 082°46'0 0.0
2014-Oct-21 04:17N 27°35' W 082°46'1 1.6
2014-Oct-21 03:25N 27°37' W 082°46'0 0.0
2014-Oct-21 02:33N 27°37' W 082°46'1 1.1
2014-Oct-21 01:20N 27°35' W 082°46'4 5.0
2014-Oct-21 00:33N 27°36' W 082°50'1 1.0
2014-Oct-20 23:30N 27°37' W 082°49'0 0.5
2014-Oct-20 22:33N 27°36' W 082°49'3 3.2
2014-Oct-20 21:31N 27°35' W 082°46'5 5.5
2014-Oct-20 20:34N 27°36' W 082°51'7 6.6
2014-Oct-20 19:33N 27°37' W 082°44'2 1.6
2014-Oct-20 18:34N 27°35' W 082°45'1 1.1
2014-Oct-20 17:32N 27°36' W 082°45'1 1.3
2014-Oct-20 16:31N 27°35' W 082°46'0 0.0
2014-Oct-20 15:19N 27°35' W 082°46'0 0.0
2014-Oct-20 14:31N 27°35' W 082°46'0 0.0
2014-Oct-20 13:31N 27°35' W 082°46'0 0.0
2014-Oct-20 12:31N 27°35' W 082°46'0 0.0
2014-Oct-20 11:31N 27°35' W 082°46'4 3.8
2014-Oct-20 10:33N 27°36' W 082°49'3 3.3
2014-Oct-20 09:33N 27°36' W 082°46'1 1.1
2014-Oct-20 08:33N 27°35' W 082°46'4 3.7
2014-Oct-20 07:33N 27°36' W 082°50'4 3.6
2014-Oct-20 06:32N 27°35' W 082°46'9 9.3
2014-Oct-20 05:33N 27°36' W 082°56'9 9.3
2014-Oct-20 04:33N 27°35' W 082°46'0 0.0
2014-Oct-20 03:33N 27°35' W 082°46'0 0.0
2014-Oct-20 02:33N 27°35' W 082°46'0 0.0
2014-Oct-20 01:33N 27°35' W 082°46'5 4.6
2014-Oct-20 00:34N 27°36' W 082°51'5 4.6
2014-Oct-19 23:33N 27°35' W 082°46'2 2.5
2014-Oct-19 22:33N 27°37' W 082°44'2 2.4
2014-Oct-19 21:32N 27°35' W 082°46'0 0.0
2014-Oct-19 20:32N 27°35' W 082°46'1 1.1
2014-Oct-19 19:34N 27°36' W 082°45'1 1.1
2014-Oct-19 18:33N 27°35' W 082°46'2 1.9
2014-Oct-19 17:32N 27°37' W 082°47'2 1.7
2014-Oct-19 16:34N 27°37' W 082°45'8 8.4
2014-Oct-19 15:33N 27°36' W 082°55'10 9.6
2014-Oct-19 14:32N 27°37' W 082°44'2 2.5
2014-Oct-19 13:32N 27°35' W 082°46'6 6.5
2014-Oct-19 12:34N 27°36' W 082°53'6 6.3
2014-Oct-19 11:33N 27°35' W 082°46'5 4.7
2014-Oct-19 10:29N 27°36' W 082°51'5 5.4
2014-Oct-19 09:32N 27°35' W 082°46'0 0.0
2014-Oct-19 08:32N 27°35' W 082°46'0 0.0
2014-Oct-19 07:32N 27°35' W 082°46'0 0.0
2014-Oct-19 06:33N 27°35' W 082°46'0 0.0
2014-Oct-19 05:33N 27°35' W 082°46'0 0.0
2014-Oct-19 04:33N 27°35' W 082°46'0 0.0
2014-Oct-19 03:33N 27°35' W 082°46'5 5.3
2014-Oct-19 02:33N 27°36' W 082°51'5 5.2
2014-Oct-19 01:33N 27°35' W 082°46'0 0.0
2014-Oct-19 00:31N 27°35' W 082°46'0 0.0
2014-Oct-18 23:31N 27°35' W 082°46'0 0.0
2014-Oct-18 22:22N 27°35' W 082°46'0 0.0
2014-Oct-18 21:31N 27°35' W 082°46'0 0.0
2014-Oct-18 20:33N 27°35' W 082°46'8 7.8
2014-Oct-18 19:32N 27°39' W 082°38'6 6.5
2014-Oct-18 18:33N 27°46' W 082°38'0 0.0
2014-Oct-18 17:33N 27°46' W 082°38'0 0.0
2014-Oct-18 16:33N 27°46' W 082°38'0 0.0
2014-Oct-18 15:33N 27°46' W 082°38'0 0.0
2014-Oct-18 14:22N 27°46' W 082°38'0 0.0
2014-Oct-18 13:24N 27°46' W 082°38'0 0.0
2014-Oct-18 12:33N 27°46' W 082°38'1010.2
2014-Oct-18 11:33N 27°37' W 082°44'0 0.0
2014-Oct-18 10:33N 27°37' W 082°44'2 2.5
2014-Oct-18 09:33N 27°35' W 082°46'7 7.5
2014-Oct-18 08:33N 27°36' W 082°54'7 7.2
2014-Oct-18 07:31N 27°35' W 082°46'0 0.0
2014-Oct-18 06:33N 27°35' W 082°46'1 1.4
2014-Oct-18 05:33N 27°36' W 082°46'1 1.4
2014-Oct-18 04:33N 27°35' W 082°46'0 0.0
2014-Oct-18 03:33N 27°35' W 082°46'0 0.0
2014-Oct-18 02:30N 27°35' W 082°46'0 0.0
2014-Oct-18 01:33N 27°35' W 082°46'0 0.0
2014-Oct-18 00:33N 27°35' W 082°46'7 6.7
2014-Oct-17 23:33N 27°36' W 082°53'8 8.5
2014-Oct-17 22:33N 27°37' W 082°44'2 2.4
2014-Oct-17 21:33N 27°35' W 082°46'0 0.0
2014-Oct-17 20:33N 27°35' W 082°46'6 6.2
2014-Oct-17 19:34N 27°36' W 082°52'7 6.5
2014-Oct-17 18:33N 27°36' W 082°45'1 0.6
2014-Oct-17 17:34N 27°35' W 082°46'0 0.0
2014-Oct-17 16:31N 27°35' W 082°46'0 0.0
2014-Oct-17 14:31N 27°35' W 082°46'0 0.0
2014-Oct-17 13:31N 27°35' W 082°46'0 0.0
2014-Oct-17 12:31N 27°35' W 082°46'0 0.0
2014-Oct-17 11:28N 27°35' W 082°46'2 2.8
2014-Oct-17 10:33N 27°37' W 082°44'2 2.4
2014-Oct-17 09:31N 27°35' W 082°46'0 0.0
2014-Oct-17 08:31N 27°35' W 082°46'0 0.0
2014-Oct-17 07:33N 27°35' W 082°46'1 0.6
2014-Oct-17 06:33N 27°36' W 082°45'1 0.6
2014-Oct-17 05:33N 27°35' W 082°46'0 0.0
2014-Oct-17 04:33N 27°35' W 082°46'0 0.0
2014-Oct-17 03:33N 27°35' W 082°46'1 1.3
2014-Oct-17 02:33N 27°36' W 082°46'3 3.0
2014-Oct-17 01:33N 27°36' W 082°49'3 3.2
2014-Oct-17 00:32N 27°35' W 082°46'0 0.0
2014-Oct-16 23:29N 27°35' W 082°46'2 2.7
2014-Oct-16 22:33N 27°37' W 082°44'2 2.5
2014-Oct-16 21:34N 27°35' W 082°46'9 8.5
2014-Oct-16 20:33N 27°37' W 082°55'1010.2
2014-Oct-16 19:34N 27°37' W 082°44'2 2.3
2014-Oct-16 18:31N 27°35' W 082°46'0 0.0
2014-Oct-16 17:31N 27°35' W 082°46'0 0.0
2014-Oct-16 16:31N 27°35' W 082°46'0 0.0
2014-Oct-16 15:31N 27°35' W 082°46'0 0.0
2014-Oct-16 14:31N 27°35' W 082°46'0 0.0
2014-Oct-16 13:28N 27°35' W 082°46'0 0.0
2014-Oct-16 12:31N 27°35' W 082°46'0 0.0
2014-Oct-16 11:31N 27°35' W 082°46'2 2.6
2014-Oct-16 10:33N 27°37' W 082°44'2 2.5
2014-Oct-16 09:33N 27°35' W 082°46'0 0.0
2014-Oct-16 08:33N 27°35' W 082°46'5 4.7
2014-Oct-16 07:33N 27°36' W 082°51'5 4.6
2014-Oct-16 06:33N 27°35' W 082°46'8 7.5
2014-Oct-16 05:33N 27°36' W 082°54'9 9.3
2014-Oct-16 04:33N 27°37' W 082°44'2 2.4
2014-Oct-16 03:31N 27°35' W 082°46'0 0.0
2014-Oct-16 02:31N 27°35' W 082°46'0 0.0
2014-Oct-16 01:25N 27°35' W 082°46'0 0.0
2014-Oct-16 00:16N 27°35' W 082°46'0 0.0
2014-Oct-15 23:31N 27°35' W 082°46'2 2.6
2014-Oct-15 22:33N 27°37' W 082°44'2 2.5
2014-Oct-15 21:33N 27°35' W 082°46'2 1.9
2014-Oct-15 20:34N 27°37' W 082°47'1 1.4
2014-Oct-15 19:33N 27°36' W 082°45'7 6.6
2014-Oct-15 18:33N 27°36' W 082°53'8 8.3
2014-Oct-15 17:34N 27°37' W 082°44'5 5.1
2014-Oct-15 16:33N 27°36' W 082°49'0 0.1
2014-Oct-15 15:34N 27°36' W 082°49'4 3.5
2014-Oct-15 14:33N 27°35' W 082°46'0 0.0
2014-Oct-15 13:32N 27°35' W 082°46'0 0.0
2014-Oct-15 12:32N 27°35' W 082°46'0 0.0
2014-Oct-15 11:32N 27°35' W 082°46'0 0.0
2014-Oct-15 10:32N 27°35' W 082°46'0 0.0
2014-Oct-15 09:32N 27°35' W 082°46'0 0.0
2014-Oct-15 08:32N 27°35' W 082°46'0 0.0
2014-Oct-15 07:32N 27°35' W 082°46'0 0.0
2014-Oct-15 06:32N 27°35' W 082°46'0 0.0
2014-Oct-15 05:32N 27°35' W 082°46'0 0.0
2014-Oct-15 04:32N 27°35' W 082°46'0 0.0
2014-Oct-15 03:32N 27°35' W 082°46'0 0.0
2014-Oct-15 02:32N 27°35' W 082°46'10 9.4
2014-Oct-15 01:27N 27°36' W 082°57'6 7.3
2014-Oct-15 00:33N 27°36' W 082°50'3 2.6
2014-Oct-14 23:30N 27°37' W 082°47'3 3.1
2014-Oct-14 22:33N 27°37' W 082°44'4 3.7
2014-Oct-14 21:33N 27°37' W 082°48'4 4.0
2014-Oct-14 20:33N 27°36' W 082°52'8 7.8
2014-Oct-14 19:33N 27°37' W 082°43'3 2.5
2014-Oct-14 18:33N 27°35' W 082°46'0 0.0
2014-Oct-14 17:33N 27°35' W 082°46'0 0.0
2014-Oct-14 16:33N 27°35' W 082°46'0 0.0
2014-Oct-14 15:33N 27°35' W 082°46'0 0.0
2014-Oct-14 13:27N 27°35' W 082°46'0 0.0
2014-Oct-14 12:33N 27°35' W 082°46'0 0.0
2014-Oct-14 11:33N 27°35' W 082°46'0 0.0
2014-Oct-14 10:33N 27°35' W 082°46'0 0.0
2014-Oct-14 09:33N 27°35' W 082°46'0 0.0
2014-Oct-14 08:33N 27°35' W 082°46'0 0.0
2014-Oct-14 07:33N 27°35' W 082°46'0 0.0
2014-Oct-14 06:30N 27°35' W 082°46'0 0.0
2014-Oct-14 05:33N 27°35' W 082°46'0 0.0
2014-Oct-14 04:33N 27°35' W 082°46'0 0.0
2014-Oct-14 03:33N 27°35' W 082°46'0 0.0
2014-Oct-14 02:33N 27°35' W 082°46'0 0.0
2014-Oct-14 01:33N 27°35' W 082°46'0 0.0
2014-Oct-14 00:33N 27°35' W 082°46'0 0.0
2014-Oct-13 23:33N 27°35' W 082°46'0 0.0
2014-Oct-13 22:33N 27°35' W 082°46'0 0.0
2014-Oct-13 21:33N 27°35' W 082°46'0 0.0
2014-Oct-13 20:33N 27°35' W 082°46'0 0.0
2014-Oct-13 19:33N 27°35' W 082°46'0 0.0
2014-Oct-13 18:33N 27°35' W 082°46'0 0.0
2014-Oct-13 17:33N 27°35' W 082°46'0 0.0
2014-Oct-13 16:33N 27°35' W 082°46'0 0.0
2014-Oct-13 15:33N 27°35' W 082°46'0 0.0
2014-Oct-13 14:09N 27°35' W 082°46'0 0.0
2014-Oct-13 13:33N 27°35' W 082°46'0 0.0
2014-Oct-13 12:33N 27°35' W 082°46'0 0.0
2014-Oct-13 11:33N 27°35' W 082°46'0 0.0
2014-Oct-13 10:33N 27°35' W 082°46'0 0.0
2014-Oct-13 09:33N 27°35' W 082°46'0 0.0
2014-Oct-13 08:33N 27°35' W 082°46'0 0.0
2014-Oct-13 07:33N 27°35' W 082°46'0 0.0
2014-Oct-13 06:33N 27°35' W 082°46'0 0.0
2014-Oct-13 05:33N 27°35' W 082°46'0 0.0
2014-Oct-13 04:33N 27°35' W 082°46'0 0.0
2014-Oct-13 03:33N 27°35' W 082°46'0 0.0
2014-Oct-13 02:33N 27°35' W 082°46'0 0.0
2014-Oct-13 01:33N 27°35' W 082°46'0 0.0
2014-Oct-13 00:33N 27°35' W 082°46'  

Dump ship's entire track history